EIKN/NOC METAR and TAF weather

Enter ICAO airport designator
Station Type Date Time Source
EIKN METAR 2018/07/21 11:30 UTC NOAA

EIKN 211130Z 24007KT 210V270 9999 BKN015 BKN072 16/12 Q1017 NOSIG


Station Type Date Time Source
EIKN Decoded METAR 2018/07/21 11:30 UTC NOAA

Connaught, Ireland (EIKN) 53-54-37N 008-49-05W
Jul 21, 2018 - 07:30 AM EDT / 2018.07.21 1130 UTC
Wind: from the WSW (240 degrees) at 8 MPH (7 KT) (direction variable):0
Visibility: greater than 7 mile(s):0
Sky conditions: mostly cloudy
Temperature: 60 F (16 C)
Dew Point: 53 F (12 C)
Relative Humidity: 77%
Pressure (altimeter): 30.03 in. Hg (1017 hPa)
ob: EIKN 211130Z 24007KT 210V270 9999 BKN015 BKN072 16/12 Q1017 NOSIG
cycle: 11

Station Type Date Time Source
EIKN TAF 2018/07/21 12:10 UTC NOAA

TAF EIKN 211100Z 2112/2212 28010KT 9999 BKN020
TEMPO 2112/2113 BKN012
BECMG 2120/2123 25007KT BKN008
TEMPO 2123/2210 2000 BR BKN004 PROB40
TEMPO 2201/2208 0300 FG BKN001
BECMG 2206/2209 24010KT
BECMG 2211/2212 BKN015


Example: see airport list